sensor_id;sensor_type;location;lat;lon;timestamp;pressure;altitude;pressure_sealevel;temperature;humidity
77041;BME280;65974;42.664;23.264;2024-01-30T00:01:49;96288.03;;;-0.74;68.41
77041;BME280;65974;42.664;23.264;2024-01-30T00:04:14;96291.97;;;-0.67;67.38
77041;BME280;65974;42.664;23.264;2024-01-30T00:06:41;96292.25;;;-0.68;67.77
77041;BME280;65974;42.664;23.264;2024-01-30T00:09:07;96294.06;;;-0.79;68.26
77041;BME280;65974;42.664;23.264;2024-01-30T00:11:34;96296.41;;;-0.83;68.38
77041;BME280;65974;42.664;23.264;2024-01-30T00:14:00;96296.94;;;-0.86;68.39
77041;BME280;65974;42.664;23.264;2024-01-30T00:16:26;96300.81;;;-0.93;68.82
77041;BME280;65974;42.664;23.264;2024-01-30T00:18:52;96298.72;;;-0.91;68.29
77041;BME280;65974;42.664;23.264;2024-01-30T00:21:19;96297.16;;;-0.87;68.08
77041;BME280;65974;42.664;23.264;2024-01-30T00:23:45;96301.34;;;-0.96;68.76
77041;BME280;65974;42.664;23.264;2024-01-30T00:26:11;96306.06;;;-0.98;68.75
77041;BME280;65974;42.664;23.264;2024-01-30T00:28:43;96306.56;;;-0.91;68.11
77041;BME280;65974;42.664;23.264;2024-01-30T00:31:09;96302.13;;;-0.91;68.08
77041;BME280;65974;42.664;23.264;2024-01-30T00:33:40;96293.75;;;-1.03;68.56
77041;BME280;65974;42.664;23.264;2024-01-30T00:36:07;96294.78;;;-1.09;68.71
77041;BME280;65974;42.664;23.264;2024-01-30T00:38:34;96291.66;;;-1.06;68.79
77041;BME280;65974;42.664;23.264;2024-01-30T00:40:59;96295.31;;;-1.07;69.11
77041;BME280;65974;42.664;23.264;2024-01-30T00:43:25;96293.75;;;-1.08;69.21
77041;BME280;65974;42.664;23.264;2024-01-30T00:45:51;96293.75;;;-1.08;69.10
77041;BME280;65974;42.664;23.264;2024-01-30T00:48:18;96292.19;;;-1.09;69.44
77041;BME280;65974;42.664;23.264;2024-01-30T00:50:43;96291.91;;;-1.12;69.52
77041;BME280;65974;42.664;23.264;2024-01-30T00:53:09;96283.78;;;-1.11;69.09
77041;BME280;65974;42.664;23.264;2024-01-30T00:55:37;96289.81;;;-1.10;68.86
77041;BME280;65974;42.664;23.264;2024-01-30T00:58:03;96284.63;;;-1.00;68.83
77041;BME280;65974;42.664;23.264;2024-01-30T01:00:28;96288.75;;;-1.14;69.25
77041;BME280;65974;42.664;23.264;2024-01-30T01:03:00;96299.47;;;-1.11;69.28
77041;BME280;65974;42.664;23.264;2024-01-30T01:05:26;96296.34;;;-1.08;69.14
77041;BME280;65974;42.664;23.264;2024-01-30T01:07:52;96288.00;;;-1.05;69.16
77041;BME280;65974;42.664;23.264;2024-01-30T01:10:17;96290.88;;;-1.01;69.39
77041;BME280;65974;42.664;23.264;2024-01-30T01:12:44;96283.81;;;-1.01;69.37
77041;BME280;65974;42.664;23.264;2024-01-30T01:15:09;96287.22;;;-0.95;69.29
77041;BME280;65974;42.664;23.264;2024-01-30T01:17:36;96280.69;;;-1.03;69.70
77041;BME280;65974;42.664;23.264;2024-01-30T01:20:02;96285.38;;;-1.00;69.51
77041;BME280;65974;42.664;23.264;2024-01-30T01:22:29;96289.06;;;-1.01;69.78
77041;BME280;65974;42.664;23.264;2024-01-30T01:24:55;96290.63;;;-1.05;70.23
77041;BME280;65974;42.664;23.264;2024-01-30T01:27:21;96291.41;;;-0.99;69.46
77041;BME280;65974;42.664;23.264;2024-01-30T01:29:46;96281.19;;;-1.06;69.47
77041;BME280;65974;42.664;23.264;2024-01-30T01:32:12;96289.31;;;-1.07;69.39
77041;BME280;65974;42.664;23.264;2024-01-30T01:34:37;96284.06;;;-1.12;69.43
77041;BME280;65974;42.664;23.264;2024-01-30T01:37:03;96281.19;;;-1.16;69.29
77041;BME280;65974;42.664;23.264;2024-01-30T01:39:28;96287.47;;;-1.07;69.14
77041;BME280;65974;42.664;23.264;2024-01-30T01:41:54;96288.50;;;-1.08;68.83
77041;BME280;65974;42.664;23.264;2024-01-30T01:44:19;96283.81;;;-1.06;68.34
77041;BME280;65974;42.664;23.264;2024-01-30T01:46:45;96283.31;;;-1.03;68.43
77041;BME280;65974;42.664;23.264;2024-01-30T01:49:11;96291.66;;;-0.96;67.93
77041;BME280;65974;42.664;23.264;2024-01-30T01:51:37;96284.63;;;-1.00;68.43
77041;BME280;65974;42.664;23.264;2024-01-30T01:54:04;96288.50;;;-1.08;68.35
77041;BME280;65974;42.664;23.264;2024-01-30T01:56:33;96282.50;;;-1.08;68.10
77041;BME280;65974;42.664;23.264;2024-01-30T01:59:08;96280.16;;;-1.10;68.51
77041;BME280;65974;42.664;23.264;2024-01-30T02:01:40;96286.16;;;-1.19;68.66
77041;BME280;65974;42.664;23.264;2024-01-30T02:04:07;96284.06;;;-1.12;68.79
77041;BME280;65974;42.664;23.264;2024-01-30T02:06:34;96293.72;;;-1.18;69.16
77041;BME280;65974;42.664;23.264;2024-01-30T02:09:01;96296.06;;;-1.16;69.18
77041;BME280;65974;42.664;23.264;2024-01-30T02:11:27;96304.47;;;-1.09;69.24
77041;BME280;65974;42.664;23.264;2024-01-30T02:13:53;96294.75;;;-1.19;69.61
77041;BME280;65974;42.664;23.264;2024-01-30T02:16:20;96292.16;;;-1.24;69.67
77041;BME280;65974;42.664;23.264;2024-01-30T02:18:46;96291.34;;;-1.24;69.53
77041;BME280;65974;42.664;23.264;2024-01-30T02:21:17;96297.38;;;-1.19;69.18
77041;BME280;65974;42.664;23.264;2024-01-30T02:23:44;96290.06;;;-1.17;69.09
77041;BME280;65974;42.664;23.264;2024-01-30T02:26:11;96297.91;;;-1.17;69.06
77041;BME280;65974;42.664;23.264;2024-01-30T02:28:37;96285.34;;;-1.20;69.21
77041;BME280;65974;42.664;23.264;2024-01-30T02:31:04;96293.19;;;-1.15;68.72
77041;BME280;65974;42.664;23.264;2024-01-30T02:33:29;96283.03;;;-1.11;69.01
77041;BME280;65974;42.664;23.264;2024-01-30T02:35:56;96289.56;;;-1.09;68.31
77041;BME280;65974;42.664;23.264;2024-01-30T02:38:22;96286.44;;;-1.06;68.48
77041;BME280;65974;42.664;23.264;2024-01-30T02:40:48;96292.69;;;-1.02;68.26
77041;BME280;65974;42.664;23.264;2024-01-30T02:43:15;96291.66;;;-1.06;67.60
77041;BME280;65974;42.664;23.264;2024-01-30T02:45:41;96289.84;;;-0.95;67.48
77041;BME280;65974;42.664;23.264;2024-01-30T02:48:07;96289.06;;;-1.01;67.38
77041;BME280;65974;42.664;23.264;2024-01-30T02:50:32;96281.75;;;-0.99;67.57
77041;BME280;65974;42.664;23.264;2024-01-30T02:52:58;96286.94;;;-1.04;67.70
77041;BME280;65974;42.664;23.264;2024-01-30T02:55:24;96285.16;;;-0.98;67.53
77041;BME280;65974;42.664;23.264;2024-01-30T02:57:49;96284.88;;;-0.97;67.71
77041;BME280;65974;42.664;23.264;2024-01-30T03:00:15;96286.44;;;-0.96;67.20
77041;BME280;65974;42.664;23.264;2024-01-30T03:02:40;96293.00;;;-0.98;67.16
77041;BME280;65974;42.664;23.264;2024-01-30T03:05:07;96292.47;;;-0.95;67.13
77041;BME280;65974;42.664;23.264;2024-01-30T03:07:33;96287.75;;;-0.93;66.82
77041;BME280;65974;42.664;23.264;2024-01-30T03:10:00;96274.94;;;-1.00;66.54
77041;BME280;65974;42.664;23.264;2024-01-30T03:12:26;96280.41;;;-1.06;66.76
77041;BME280;65974;42.664;23.264;2024-01-30T03:14:51;96276.22;;;-1.02;67.05
77041;BME280;65974;42.664;23.264;2024-01-30T03:17:17;96282.53;;;-0.98;67.42
77041;BME280;65974;42.664;23.264;2024-01-30T03:19:43;96278.59;;;-0.96;67.00
77041;BME280;65974;42.664;23.264;2024-01-30T03:22:08;96276.50;;;-0.99;66.60
77041;BME280;65974;42.664;23.264;2024-01-30T03:24:35;96268.66;;;-0.99;66.92
77041;BME280;65974;42.664;23.264;2024-01-30T03:27:02;96271.78;;;-1.02;66.89
77041;BME280;65974;42.664;23.264;2024-01-30T03:29:28;96278.06;;;-1.03;66.65
77041;BME280;65974;42.664;23.264;2024-01-30T03:31:53;96285.38;;;-1.00;66.53
77041;BME280;65974;42.664;23.264;2024-01-30T03:34:19;96275.44;;;-0.98;65.89
77041;BME280;65974;42.664;23.264;2024-01-30T03:36:45;96272.84;;;-1.03;65.88
77041;BME280;65974;42.664;23.264;2024-01-30T03:39:10;96267.84;;;-1.04;66.19
77041;BME280;65974;42.664;23.264;2024-01-30T03:41:36;96268.91;;;-1.05;66.36
77041;BME280;65974;42.664;23.264;2024-01-30T03:44:01;96268.91;;;-1.05;65.61
77041;BME280;65974;42.664;23.264;2024-01-30T03:46:27;96269.44;;;-1.03;65.93
77041;BME280;65974;42.664;23.264;2024-01-30T03:48:52;96264.97;;;-1.08;66.15
77041;BME280;65974;42.664;23.264;2024-01-30T03:51:18;96265.78;;;-1.07;65.75
77041;BME280;65974;42.664;23.264;2024-01-30T03:53:44;96271.53;;;-1.00;64.79
77041;BME280;65974;42.664;23.264;2024-01-30T03:56:11;96268.13;;;-1.01;64.87
77041;BME280;65974;42.664;23.264;2024-01-30T03:58:38;96267.63;;;-1.03;64.88
77041;BME280;65974;42.664;23.264;2024-01-30T04:01:04;96270.75;;;-1.06;64.63
77041;BME280;65974;42.664;23.264;2024-01-30T04:03:29;96256.38;;;-1.03;64.74
77041;BME280;65974;42.664;23.264;2024-01-30T04:05:55;96260.31;;;-1.01;64.28
77041;BME280;65974;42.664;23.264;2024-01-30T04:08:20;96262.91;;;-1.06;64.54
77041;BME280;65974;42.664;23.264;2024-01-30T04:10:46;96264.19;;;-1.08;64.20
77041;BME280;65974;42.664;23.264;2024-01-30T04:13:12;96261.31;;;-1.02;64.72
77041;BME280;65974;42.664;23.264;2024-01-30T04:15:38;96259.78;;;-1.03;64.79
77041;BME280;65974;42.664;23.264;2024-01-30T04:18:04;96259.50;;;-1.06;64.50
77041;BME280;65974;42.664;23.264;2024-01-30T04:20:30;96261.56;;;-1.08;65.11
77041;BME280;65974;42.664;23.264;2024-01-30T04:22:56;96258.97;;;-1.03;64.87
77041;BME280;65974;42.664;23.264;2024-01-30T04:25:21;96264.22;;;-1.03;64.55
77041;BME280;65974;42.664;23.264;2024-01-30T04:27:47;96259.25;;;-1.00;65.03
77041;BME280;65974;42.664;23.264;2024-01-30T04:30:13;96257.66;;;-1.06;64.95
77041;BME280;65974;42.664;23.264;2024-01-30T04:32:38;96266.03;;;-1.09;64.71
77041;BME280;65974;42.664;23.264;2024-01-30T04:35:04;96270.47;;;-1.09;64.91
77041;BME280;65974;42.664;23.264;2024-01-30T04:37:30;96269.94;;;-1.16;64.76
77041;BME280;65974;42.664;23.264;2024-01-30T04:39:56;96270.47;;;-1.04;64.92
77041;BME280;65974;42.664;23.264;2024-01-30T04:42:21;96262.34;;;-1.18;65.20
77041;BME280;65974;42.664;23.264;2024-01-30T04:44:47;96271.53;;;-1.15;64.71
77041;BME280;65974;42.664;23.264;2024-01-30T04:47:12;96269.41;;;-1.18;65.25
77041;BME280;65974;42.664;23.264;2024-01-30T04:49:39;96279.06;;;-1.19;65.58
77041;BME280;65974;42.664;23.264;2024-01-30T04:52:07;96282.22;;;-1.12;65.37
77041;BME280;65974;42.664;23.264;2024-01-30T04:54:33;96290.59;;;-1.10;65.28
77041;BME280;65974;42.664;23.264;2024-01-30T04:57:00;96288.75;;;-1.14;65.45
77041;BME280;65974;42.664;23.264;2024-01-30T04:59:25;96290.06;;;-1.17;65.46
77041;BME280;65974;42.664;23.264;2024-01-30T05:01:51;96293.97;;;-1.14;65.13
77041;BME280;65974;42.664;23.264;2024-01-30T05:04:16;96287.47;;;-1.12;65.34
77041;BME280;65974;42.664;23.264;2024-01-30T05:06:43;96298.44;;;-1.10;65.15
77041;BME280;65974;42.664;23.264;2024-01-30T05:09:08;96291.38;;;-1.04;65.08
77041;BME280;65974;42.664;23.264;2024-01-30T05:11:41;96302.91;;;-1.05;64.41
77041;BME280;65974;42.664;23.264;2024-01-30T05:14:07;96300.53;;;-1.12;65.23
77041;BME280;65974;42.664;23.264;2024-01-30T05:16:34;96306.25;;;-1.15;64.94
77041;BME280;65974;42.664;23.264;2024-01-30T05:18:59;96299.72;;;-1.22;65.50
77041;BME280;65974;42.664;23.264;2024-01-30T05:21:27;96313.28;;;-1.25;65.70
77041;BME280;65974;42.664;23.264;2024-01-30T05:23:53;96316.44;;;-1.23;66.21
77041;BME280;65974;42.664;23.264;2024-01-30T05:26:19;96316.94;;;-1.31;66.25
77041;BME280;65974;42.664;23.264;2024-01-30T05:28:44;96319.81;;;-1.33;66.28
77041;BME280;65974;42.664;23.264;2024-01-30T05:31:10;96311.72;;;-1.36;66.86
77041;BME280;65974;42.664;23.264;2024-01-30T05:33:36;96308.81;;;-1.40;67.00
77041;BME280;65974;42.664;23.264;2024-01-30T05:36:02;96304.56;;;-1.51;67.34
77041;BME280;65974;42.664;23.264;2024-01-30T05:38:30;96300.66;;;-1.53;67.67
77041;BME280;65974;42.664;23.264;2024-01-30T05:40:57;96305.09;;;-1.49;67.68
77041;BME280;65974;42.664;23.264;2024-01-30T05:43:25;96306.16;;;-1.50;67.57
77041;BME280;65974;42.664;23.264;2024-01-30T05:45:51;96309.78;;;-1.51;67.46
77041;BME280;65974;42.664;23.264;2024-01-30T05:48:17;96304.00;;;-1.63;67.90
77041;BME280;65974;42.664;23.264;2024-01-30T05:50:42;96304.00;;;-1.63;67.59
77041;BME280;65974;42.664;23.264;2024-01-30T05:53:08;96301.41;;;-1.63;67.54
77041;BME280;65974;42.664;23.264;2024-01-30T05:55:34;96302.19;;;-1.58;67.82
77041;BME280;65974;42.664;23.264;2024-01-30T05:57:59;96303.50;;;-1.55;67.47
77041;BME280;65974;42.664;23.264;2024-01-30T06:00:25;96305.59;;;-1.57;67.26
77041;BME280;65974;42.664;23.264;2024-01-30T06:02:50;96312.09;;;-1.60;66.67
77041;BME280;65974;42.664;23.264;2024-01-30T06:05:16;96299.84;;;-1.59;66.98
77041;BME280;65974;42.664;23.264;2024-01-30T06:07:41;96303.78;;;-1.57;66.66
77041;BME280;65974;42.664;23.264;2024-01-30T06:10:07;96297.75;;;-1.57;66.59
77041;BME280;65974;42.664;23.264;2024-01-30T06:12:34;96295.91;;;-1.62;66.55
77041;BME280;65974;42.664;23.264;2024-01-30T06:15:01;96302.19;;;-1.58;66.71
77041;BME280;65974;42.664;23.264;2024-01-30T06:17:26;96305.59;;;-1.57;66.91
77041;BME280;65974;42.664;23.264;2024-01-30T06:19:52;96305.03;;;-1.69;66.79
77041;BME280;65974;42.664;23.264;2024-01-30T06:22:17;96305.06;;;-1.64;66.65
77041;BME280;65974;42.664;23.264;2024-01-30T06:24:43;96303.22;;;-1.69;66.98
77041;BME280;65974;42.664;23.264;2024-01-30T06:27:10;96292.47;;;-1.77;67.00
77041;BME280;65974;42.664;23.264;2024-01-30T06:29:36;96310.75;;;-1.72;66.76
77041;BME280;65974;42.664;23.264;2024-01-30T06:32:01;96315.75;;;-1.71;66.38
77041;BME280;65974;42.664;23.264;2024-01-30T06:34:27;96318.88;;;-1.64;66.41
77041;BME280;65974;42.664;23.264;2024-01-30T06:36:52;96308.47;;;-1.59;66.34
77041;BME280;65974;42.664;23.264;2024-01-30T06:39:18;96313.69;;;-1.59;66.40
77041;BME280;65974;42.664;23.264;2024-01-30T06:41:43;96313.22;;;-1.45;66.09
77041;BME280;65974;42.664;23.264;2024-01-30T06:44:09;96315.38;;;-1.32;65.63
77041;BME280;65974;42.664;23.264;2024-01-30T06:46:35;96321.91;;;-1.30;65.54
77041;BME280;65974;42.664;23.264;2024-01-30T06:49:00;96313.28;;;-1.25;65.25
77041;BME280;65974;42.664;23.264;2024-01-30T06:51:26;96315.66;;;-1.24;64.55
77041;BME280;65974;42.664;23.264;2024-01-30T06:53:52;96306.50;;;-1.21;64.71
77041;BME280;65974;42.664;23.264;2024-01-30T06:56:17;96310.69;;;-1.20;64.48
77041;BME280;65974;42.664;23.264;2024-01-30T06:58:49;96315.94;;;-1.10;63.20
77041;BME280;65974;42.664;23.264;2024-01-30T07:01:15;96315.72;;;-1.04;63.40
77041;BME280;65974;42.664;23.264;2024-01-30T07:03:41;96315.72;;;-1.04;63.30
77041;BME280;65974;42.664;23.264;2024-01-30T07:06:07;96314.16;;;-0.95;63.45
77041;BME280;65974;42.664;23.264;2024-01-30T07:08:33;96317.03;;;-0.91;62.69
77041;BME280;65974;42.664;23.264;2024-01-30T07:10:58;96324.13;;;-0.82;62.43
77041;BME280;65974;42.664;23.264;2024-01-30T07:13:24;96324.13;;;-0.87;61.92
77041;BME280;65974;42.664;23.264;2024-01-30T07:15:50;96323.63;;;-0.73;61.83
77041;BME280;65974;42.664;23.264;2024-01-30T07:18:15;96326.00;;;-0.62;61.29
77041;BME280;65974;42.664;23.264;2024-01-30T07:20:41;96320.50;;;-0.60;60.70
77041;BME280;65974;42.664;23.264;2024-01-30T07:23:14;96315.81;;;-0.53;60.46
77041;BME280;65974;42.664;23.264;2024-01-30T07:25:45;96326.78;;;-0.51;60.30
77041;BME280;65974;42.664;23.264;2024-01-30T07:28:11;96320.50;;;-0.50;59.70
77041;BME280;65974;42.664;23.264;2024-01-30T07:30:42;96329.38;;;-0.46;60.27
77041;BME280;65974;42.664;23.264;2024-01-30T07:33:08;96319.47;;;-0.34;59.96
77041;BME280;65974;42.664;23.264;2024-01-30T07:35:34;96320.75;;;-0.32;58.85
77041;BME280;65974;42.664;23.264;2024-01-30T07:38:00;96311.56;;;-0.19;59.12
77041;BME280;65974;42.664;23.264;2024-01-30T07:40:25;96310.81;;;-0.20;57.93
77041;BME280;65974;42.664;23.264;2024-01-30T07:42:50;96313.16;;;-0.18;57.67
77041;BME280;65974;42.664;23.264;2024-01-30T07:45:16;96318.66;;;-0.05;57.64
77041;BME280;65974;42.664;23.264;2024-01-30T07:47:42;96317.88;;;0.00;57.94
77041;BME280;65974;42.664;23.264;2024-01-30T07:50:08;96316.28;;;0.04;57.08
77041;BME280;65974;42.664;23.264;2024-01-30T07:52:34;96316.53;;;0.03;56.98
77041;BME280;65974;42.664;23.264;2024-01-30T07:55:00;96311.28;;;0.03;56.82
77041;BME280;65974;42.664;23.264;2024-01-30T07:57:25;96311.03;;;-0.06;57.13
77041;BME280;65974;42.664;23.264;2024-01-30T07:59:51;96307.63;;;0.04;56.80
77041;BME280;65974;42.664;23.264;2024-01-30T08:02:16;96311.06;;;0.04;56.91
77041;BME280;65974;42.664;23.264;2024-01-30T08:04:42;96318.38;;;0.02;57.21
77041;BME280;65974;42.664;23.264;2024-01-30T08:07:07;96309.75;;;-0.09;56.67
77041;BME280;65974;42.664;23.264;2024-01-30T08:09:32;96310.78;;;-0.10;56.87
77041;BME280;65974;42.664;23.264;2024-01-30T08:11:58;96305.31;;;-0.13;56.91
77041;BME280;65974;42.664;23.264;2024-01-30T08:14:24;96308.44;;;-0.06;57.31
77041;BME280;65974;42.664;23.264;2024-01-30T08:16:49;96311.28;;;0.08;56.70
77041;BME280;65974;42.664;23.264;2024-01-30T08:19:15;96303.16;;;0.19;56.59
77041;BME280;65974;42.664;23.264;2024-01-30T08:21:41;96307.56;;;0.29;56.78
77041;BME280;65974;42.664;23.264;2024-01-30T08:24:07;96302.63;;;0.27;55.81
77041;BME280;65974;42.664;23.264;2024-01-30T08:26:34;96302.06;;;0.35;55.24
77041;BME280;65974;42.664;23.264;2024-01-30T08:29:01;96307.53;;;0.44;55.88
77041;BME280;65974;42.664;23.264;2024-01-30T08:31:26;96310.16;;;0.49;55.59
77041;BME280;65974;42.664;23.264;2024-01-30T08:33:52;96307.72;;;0.62;55.50
77041;BME280;65974;42.664;23.264;2024-01-30T08:36:18;96306.69;;;0.53;55.12
77041;BME280;65974;42.664;23.264;2024-01-30T08:38:43;96309.88;;;0.45;55.21
77041;BME280;65974;42.664;23.264;2024-01-30T08:41:09;96313.53;;;0.54;54.54
77041;BME280;65974;42.664;23.264;2024-01-30T08:43:35;96311.69;;;0.55;54.93
77041;BME280;65974;42.664;23.264;2024-01-30T08:46:02;96311.41;;;0.56;55.60
77041;BME280;65974;42.664;23.264;2024-01-30T08:48:27;96319.47;;;0.75;54.82
77041;BME280;65974;42.664;23.264;2024-01-30T08:50:53;96325.16;;;0.92;54.22
77041;BME280;65974;42.664;23.264;2024-01-30T08:53:19;96316.16;;;1.08;53.99
77041;BME280;65974;42.664;23.264;2024-01-30T08:55:45;96315.34;;;1.13;53.72
77041;BME280;65974;42.664;23.264;2024-01-30T08:58:10;96317.28;;;0.92;54.26
77041;BME280;65974;42.664;23.264;2024-01-30T09:00:36;96328.16;;;1.19;53.88
77041;BME280;65974;42.664;23.264;2024-01-30T09:03:03;96324.88;;;1.42;53.60
77041;BME280;65974;42.664;23.264;2024-01-30T09:05:29;96336.03;;;1.58;53.07
77041;BME280;65974;42.664;23.264;2024-01-30T09:07:55;96329.44;;;1.66;53.35
77041;BME280;65974;42.664;23.264;2024-01-30T09:10:20;96328.44;;;1.90;53.04
77041;BME280;65974;42.664;23.264;2024-01-30T09:12:46;96321.44;;;2.09;52.65
77041;BME280;65974;42.664;23.264;2024-01-30T09:15:12;96326.25;;;2.26;51.55
77041;BME280;65974;42.664;23.264;2024-01-30T09:17:37;96324.91;;;2.28;51.34
77041;BME280;65974;42.664;23.264;2024-01-30T09:20:03;96320.38;;;2.10;52.37
77041;BME280;65974;42.664;23.264;2024-01-30T09:22:29;96321.06;;;1.92;53.28
77041;BME280;65974;42.664;23.264;2024-01-30T09:24:55;96318.47;;;2.16;53.28
77041;BME280;65974;42.664;23.264;2024-01-30T09:27:20;96307.69;;;2.17;53.55
77041;BME280;65974;42.664;23.264;2024-01-30T09:29:45;96308.81;;;2.35;53.68
77041;BME280;65974;42.664;23.264;2024-01-30T09:32:11;96310.06;;;2.43;53.88
77041;BME280;65974;42.664;23.264;2024-01-30T09:34:36;96312.19;;;2.17;53.96
77041;BME280;65974;42.664;23.264;2024-01-30T09:37:02;96311.38;;;1.88;54.74
77041;BME280;65974;42.664;23.264;2024-01-30T09:39:28;96310.97;;;2.04;54.52
77041;BME280;65974;42.664;23.264;2024-01-30T09:42:09;96302.56;;;1.74;54.68
77041;BME280;65974;42.664;23.264;2024-01-30T09:44:40;96303.88;;;1.42;54.96
77041;BME280;65974;42.664;23.264;2024-01-30T09:47:08;96303.72;;;1.24;55.87
77041;BME280;65974;42.664;23.264;2024-01-30T09:49:34;96300.38;;;1.13;56.68
77041;BME280;65974;42.664;23.264;2024-01-30T09:52:05;96301.56;;;0.92;56.86
77041;BME280;65974;42.664;23.264;2024-01-30T09:54:32;96299.78;;;0.83;57.00
77041;BME280;65974;42.664;23.264;2024-01-30T09:56:58;96296.88;;;0.79;57.03
77041;BME280;65974;42.664;23.264;2024-01-30T09:59:24;96300.09;;;0.71;57.20
77041;BME280;65974;42.664;23.264;2024-01-30T10:01:50;96300.94;;;0.61;57.99
77041;BME280;65974;42.664;23.264;2024-01-30T10:04:16;96307.16;;;0.75;57.50
77041;BME280;65974;42.664;23.264;2024-01-30T10:06:42;96304.25;;;0.77;57.55
77041;BME280;65974;42.664;23.264;2024-01-30T10:09:07;96295.63;;;0.71;57.34
77041;BME280;65974;42.664;23.264;2024-01-30T10:11:35;96297.47;;;0.71;57.31
77041;BME280;65974;42.664;23.264;2024-01-30T10:14:01;96282.16;;;0.93;56.99
77041;BME280;65974;42.664;23.264;2024-01-30T10:16:26;96282.28;;;1.12;57.14
77041;BME280;65974;42.664;23.264;2024-01-30T10:18:52;96289.56;;;1.25;56.56
77041;BME280;65974;42.664;23.264;2024-01-30T10:21:17;96279.13;;;1.15;56.64
77041;BME280;65974;42.664;23.264;2024-01-30T10:23:43;96291.16;;;1.21;56.72
77041;BME280;65974;42.664;23.264;2024-01-30T10:26:11;96284.38;;;1.15;57.39
77041;BME280;65974;42.664;23.264;2024-01-30T10:28:37;96284.13;;;1.11;56.78
77041;BME280;65974;42.664;23.264;2024-01-30T10:31:02;96287.94;;;0.90;57.00
77041;BME280;65974;42.664;23.264;2024-01-30T10:33:31;96279.00;;;0.91;56.89
77041;BME280;65974;42.664;23.264;2024-01-30T10:36:02;96292.34;;;1.00;56.97
77041;BME280;65974;42.664;23.264;2024-01-30T10:38:32;96286.59;;;0.93;56.75
77041;BME280;65974;42.664;23.264;2024-01-30T10:40:59;96287.56;;;1.07;56.68
77041;BME280;65974;42.664;23.264;2024-01-30T10:43:31;96288.13;;;1.42;56.33
77041;BME280;65974;42.664;23.264;2024-01-30T10:45:58;96270.31;;;1.97;54.50
77041;BME280;65974;42.664;23.264;2024-01-30T10:48:30;96275.63;;;1.63;54.20
77041;BME280;65974;42.664;23.264;2024-01-30T10:51:01;96275.81;;;1.38;54.95
77041;BME280;65974;42.664;23.264;2024-01-30T10:53:28;96282.88;;;1.42;55.34
77041;BME280;65974;42.664;23.264;2024-01-30T10:55:56;96274.28;;;1.32;55.57
77041;BME280;65974;42.664;23.264;2024-01-30T10:58:24;96263.50;;;1.38;55.96
77041;BME280;65974;42.664;23.264;2024-01-30T11:00:50;96265.78;;;1.45;55.88
77041;BME280;65974;42.664;23.264;2024-01-30T11:03:17;96256.44;;;1.34;55.91
77041;BME280;65974;42.664;23.264;2024-01-30T11:05:43;96259.63;;;1.26;55.85
77041;BME280;65974;42.664;23.264;2024-01-30T11:08:14;96248.56;;;1.34;55.40
77041;BME280;65974;42.664;23.264;2024-01-30T11:10:46;96248.06;;;1.32;55.42
77041;BME280;65974;42.664;23.264;2024-01-30T11:13:16;96248.28;;;1.35;55.31
77041;BME280;65974;42.664;23.264;2024-01-30T11:15:41;96247.56;;;1.58;54.98
77041;BME280;65974;42.664;23.264;2024-01-30T11:18:07;96244.94;;;1.87;54.77
77041;BME280;65974;42.664;23.264;2024-01-30T11:20:33;96242.59;;;2.09;54.60
77041;BME280;65974;42.664;23.264;2024-01-30T11:23:01;96245.69;;;1.88;54.22
77041;BME280;65974;42.664;23.264;2024-01-30T11:25:32;96245.03;;;1.77;54.60
77041;BME280;65974;42.664;23.264;2024-01-30T11:27:58;96246.13;;;1.71;54.77
77041;BME280;65974;42.664;23.264;2024-01-30T11:30:31;96247.47;;;1.69;55.54
77041;BME280;65974;42.664;23.264;2024-01-30T11:33:08;96239.53;;;1.74;55.44
77041;BME280;65974;42.664;23.264;2024-01-30T11:35:42;96241.25;;;1.88;54.57
77041;BME280;65974;42.664;23.264;2024-01-30T11:38:10;96242.41;;;2.01;54.62
77041;BME280;65974;42.664;23.264;2024-01-30T11:40:37;96246.38;;;1.98;54.44
77041;BME280;65974;42.664;23.264;2024-01-30T11:43:04;96249.75;;;1.75;54.75
77041;BME280;65974;42.664;23.264;2024-01-30T11:45:32;96250.50;;;1.52;55.39
77041;BME280;65974;42.664;23.264;2024-01-30T11:47:58;96239.06;;;1.67;55.00
77041;BME280;65974;42.664;23.264;2024-01-30T11:50:29;96231.25;;;1.62;55.29
77041;BME280;65974;42.664;23.264;2024-01-30T11:52:55;96236.50;;;1.90;54.89
77041;BME280;65974;42.664;23.264;2024-01-30T11:55:20;96234.72;;;2.09;54.40
77041;BME280;65974;42.664;23.264;2024-01-30T11:57:46;96241.91;;;1.99;54.47
77041;BME280;65974;42.664;23.264;2024-01-30T12:00:15;96225.16;;;1.95;54.58
77041;BME280;65974;42.664;23.264;2024-01-30T12:03:00;96222.16;;;2.06;54.31
77041;BME280;65974;42.664;23.264;2024-01-30T12:05:27;96216.25;;;2.38;53.80
77041;BME280;65974;42.664;23.264;2024-01-30T12:07:53;96209.22;;;2.33;53.08
77041;BME280;65974;42.664;23.264;2024-01-30T12:10:19;96204.75;;;2.53;53.23
77041;BME280;65974;42.664;23.264;2024-01-30T12:12:52;96202.63;;;2.55;52.72
77041;BME280;65974;42.664;23.264;2024-01-30T12:15:21;96192.94;;;2.31;52.99
77041;BME280;65974;42.664;23.264;2024-01-30T12:17:46;96200.31;;;2.29;53.57
77041;BME280;65974;42.664;23.264;2024-01-30T12:20:14;96192.91;;;2.13;53.85
77041;BME280;65974;42.664;23.264;2024-01-30T12:22:42;96193.06;;;2.21;54.10
77041;BME280;65974;42.664;23.264;2024-01-30T12:25:10;96193.66;;;2.13;54.18
77041;BME280;65974;42.664;23.264;2024-01-30T12:27:37;96194.75;;;2.12;54.01
77041;BME280;65974;42.664;23.264;2024-01-30T12:30:10;96186.25;;;2.20;53.75
77041;BME280;65974;42.664;23.264;2024-01-30T12:32:41;96190.00;;;2.14;54.22
77041;BME280;65974;42.664;23.264;2024-01-30T12:35:16;96183.44;;;2.12;54.26
77041;BME280;65974;42.664;23.264;2024-01-30T12:37:43;96180.34;;;2.28;54.03
77041;BME280;65974;42.664;23.264;2024-01-30T12:40:11;96180.69;;;2.22;54.18
77041;BME280;65974;42.664;23.264;2024-01-30T12:42:38;96176.38;;;2.31;54.18
77041;BME280;65974;42.664;23.264;2024-01-30T12:45:04;96181.97;;;2.24;53.05
77041;BME280;65974;42.664;23.264;2024-01-30T12:47:33;96178.13;;;2.17;53.55
77041;BME280;65974;42.664;23.264;2024-01-30T12:52:44;96172.41;;;1.91;54.66